Sasser, Georgia
Current Conditions -  °F | °C
As of 1:53 PM on Sunday 21 Dec 2014 (Local Time) from KABY Reporting Station
Haze Haze  
Wind Chill: 52°   Ceiling: 500
Heat Index: 52°   Visibility: 2mi
Dew Point: 51°   Wind: 9mph
Humidity: 97%   Direction: 50°NE
Pressure: 30.1"   Gusts: NA
Location:  31.72°N, 84.35°W
Report Text: KABY 211853Z 05008KT 2SM BR OVC005 11/11 A3010 RMK AO2 CIG 004V008 SLP192 T01110106
Loading
Personal Weather Stations






























Interactive Weather Map New forecast layout! Learn more

10-Day Weather Forecast

Advertisements
Track Severe Weather on mobile